Terminal Aerodrome Forecast
Issued by NWS

Home | Current Version | Previous Version | Text Only | Print | Product List | Glossary On
Versions: 1 2 3 4 5 6 7 8 9 10 11 12
641
FTUS44 KEPZ 232332
TAFDMN
TAF
KDMN 232332Z 2400/2424 33007KT P6SM SKC
     FM240300 06008KT P6SM SKC
     FM241000 07015G25KT P6SM SKC
     FM242300 11011KT P6SM SKC=

USA.gov is the U.S. government's official web portal to all federal, state and local government web resources and services.